^^
Datos históricos de la estación: Murcia-Puente Tocinos
Diario Informe para Noviembre 7, 2019 Unidades:  Ingés    Métrico   Ambas
Diario Semanal Mensual Anual
  Máxima: Mínima: Promedio:
Temperatura: 70.5 °F 49.8 °F 60.3 °F
Punto de rocio: 52.9 °F 36.7 °F 43.5 °F
Humedad: 72% 37.1% 55%
Velocidad viento: 12.5mph 0mph 3.6mph
Racha viento: 24.2mph - -
Viento- - SO
Presión: 29.9 in 29.7 in -
Precipitación: 0.01 in    
 
 
Tabla de datos para Noviembre 7, 2019
Hora Temperatura Punto de rocio Presión Viento Velocidad viento Racha viento Humedad Intensidad lluvia(por hora) Nubes
00:04 58.1 °F 40.3 °F 29.9 in SSE 3.5 mph 6 mph 51.2% 0 in
00:09 57.9 °F 40.5 °F 29.9 in Sur 3.6 mph 5 mph 52% 0 in
00:14 57.7 °F 40.3 °F 29.9 in SSO 3 mph 5 mph 52% 0 in
00:19 57.7 °F 40.3 °F 29.9 in SO 2.9 mph 5.2 mph 52.1% 0 in
00:24 57.6 °F 40.1 °F 29.9 in SSO 2.9 mph 5 mph 52% 0 in
00:29 57.6 °F 40.3 °F 29.9 in Sur 2.9 mph 5 mph 52.6% 0 in
00:34 57.6 °F 40.3 °F 29.9 in SO 3 mph 5.2 mph 52.6% 0 in
00:39 57.4 °F 40.3 °F 29.9 in SSO 3.1 mph 5.2 mph 52.6% 0 in
00:44 57.2 °F 40.8 °F 29.9 in SE 2.9 mph 5.2 mph 54.4% 0 in
00:49 56.7 °F 40.6 °F 29.9 in Sur 2.9 mph 6.2 mph 55% 0 in
00:54 56.5 °F 40.5 °F 29.9 in SSO 3.4 mph 6 mph 55% 0 in
00:59 56.5 °F 40.5 °F 29.9 in SO 3.6 mph 6 mph 55% 0 in
01:04 56.5 °F 40.5 °F 29.9 in SSO 3.2 mph 6.2 mph 55% 0 in
01:09 56.3 °F 40.3 °F 29.9 in SSO 3.1 mph 6 mph 55% 0 in
01:14 56.3 °F 40.3 °F 29.9 in SO 3.8 mph 6.2 mph 55% 0 in
01:19 56.3 °F 40.3 °F 29.9 in SO 4 mph 6 mph 55% 0 in
01:24 56.1 °F 40.3 °F 29.9 in SSO 3.3 mph 8.1 mph 55% 0 in
01:29 56.3 °F 40.3 °F 29.9 in SO 3.1 mph 8.1 mph 55% 0 in
01:34 56.3 °F 40.3 °F 29.9 in SO 4.3 mph 7 mph 55% 0 in
01:39 56.1 °F 40.3 °F 29.9 in SO 4.7 mph 6 mph 55% 0 in
01:44 56.1 °F 40.1 °F 29.9 in SO 3.2 mph 4.6 mph 55% 0 in
01:49 55.9 °F 39.9 °F 29.9 in SSO 2.9 mph 6.2 mph 55% 0 in
01:54 55.9 °F 39.9 °F 29.9 in Sur 3 mph 7.4 mph 55% 0 in
01:59 55.9 °F 40.1 °F 29.9 in SSO 3.1 mph 7.4 mph 55% 0 in
02:04 55.9 °F 40.1 °F 29.9 in SSO 4.8 mph 8.1 mph 55% 0 in
02:09 55.9 °F 39.9 °F 29.9 in SSO 5.2 mph 8 mph 55% 0 in
02:14 55.9 °F 39.9 °F 29.9 in SSO 4.8 mph 6.9 mph 55% 0 in
02:19 55.9 °F 39.9 °F 29.9 in SSO 4.7 mph 7 mph 55% 0 in
02:24 55.9 °F 39.9 °F 29.9 in SO 4.2 mph 6 mph 55% 0 in
02:29 55.9 °F 39.7 °F 29.9 in OSO 4 mph 6 mph 54.6% 0 in
02:34 55.8 °F 39.6 °F 29.9 in Oeste 3.1 mph 5 mph 54.2% 0 in
02:39 55.8 °F 39.7 °F 29.9 in Oeste 2.9 mph 5 mph 55.1% 0 in
02:44 55.4 °F 40.1 °F 29.9 in Oeste 2 mph 3 mph 56.5% 0 in
02:49 55 °F 40.1 °F 29.9 in Oeste 1.8 mph 4.3 mph 57% 0 in
02:54 54.7 °F 39.7 °F 29.9 in SO 2 mph 6.2 mph 57.1% 0 in
02:59 54.7 °F 39.4 °F 29.9 in SO 2 mph 9.2 mph 56% 0 in
03:04 54.9 °F 39 °F 29.9 in SO 4.2 mph 9 mph 55% 0 in
03:09 54.9 °F 39 °F 29.9 in SO 4.7 mph 7 mph 55% 0 in
03:14 54.9 °F 39.2 °F 29.9 in SO 4.2 mph 8.1 mph 55.5% 0 in
03:19 54.5 °F 39.6 °F 29.9 in SSO 4 mph 10.4 mph 57% 0 in
03:24 54.1 °F 39.9 °F 29.9 in SSO 4.6 mph 10 mph 58.6% 0 in
03:29 54 °F 40.3 °F 29.9 in SO 4.7 mph 7 mph 59.9% 0 in
03:34 54 °F 40.3 °F 29.9 in OSO 4.2 mph 7 mph 60% 0 in
03:39 53.8 °F 40.5 °F 29.9 in SO 4 mph 6.9 mph 60.8% 0 in
03:44 53.8 °F 40.6 °F 29.9 in SSO 3.3 mph 7 mph 61.1% 0 in
03:49 53.8 °F 41 °F 29.9 in SE 3.1 mph 4 mph 62% 0 in
03:54 53.6 °F 41 °F 29.9 in SE 2.5 mph 5 mph 62.2% 0 in
03:59 53.4 °F 41.2 °F 29.9 in SE 2.4 mph 5 mph 63% 0 in
04:04 53.4 °F 41 °F 29.9 in Sur 2.1 mph 5 mph 63% 0 in
04:09 53.2 °F 41.2 °F 29.9 in Sur 2 mph 4 mph 63.4% 0 in
04:14 53.2 °F 41.2 °F 29.9 in SE 1.9 mph 4.6 mph 63.6% 0 in
04:19 52.9 °F 41 °F 29.9 in Sur 1.8 mph 5 mph 64% 0 in
04:24 52.7 °F 41 °F 29.9 in SSO 2.3 mph 5 mph 64.6% 0 in
04:29 52.5 °F 41.2 °F 29.9 in SO 2.4 mph 4 mph 65% 0 in
04:34 52.5 °F 41.2 °F 29.9 in SO 1.9 mph 4 mph 65% 0 in
04:39 52.7 °F 41.4 °F 29.9 in SO 1.8 mph 3 mph 65% 0 in
04:44 52.7 °F 41.4 °F 29.9 in SO 0.4 mph 4.6 mph 65% 0 in
04:49 52.9 °F 41.5 °F 29.9 in Calm   5 mph 65.3% 0 in
04:54 52.5 °F 40.8 °F 29.9 in SE 1.6 mph 5.2 mph 64.2% 0 in
04:59 52.3 °F 40.6 °F 29.9 in SE 2 mph 5 mph 64.4% 0 in
05:04 52.2 °F 40.6 °F 29.9 in SSE 2.7 mph 5.4 mph 65% 0 in
05:09 52 °F 40.6 °F 29.9 in SSE 2.9 mph 6 mph 65.3% 0 in
05:14 52 °F 41 °F 29.9 in SSE 3.5 mph 7.6 mph 66% 0 in
05:19 52 °F 41 °F 29.9 in Sur 3.6 mph 8.1 mph 66% 0 in
05:24 52 °F 41 °F 29.9 in SSE 4.2 mph 6.9 mph 66% 0 in
05:29 52 °F 41 °F 29.9 in Sur 4.3 mph 7 mph 66% 0 in
05:34 52 °F 40.8 °F 29.9 in SSO 4.3 mph 8.1 mph 65.6% 0 in
05:39 52.2 °F 40.6 °F 29.9 in SSO 4.3 mph 8 mph 64.9% 0 in
05:44 52.2 °F 40.6 °F 29.9 in SSE 4.3 mph 7 mph 65% 0 in
05:49 52.2 °F 40.8 °F 29.9 in SSE 4.3 mph 5.9 mph 65.2% 0 in
05:54 51.8 °F 40.8 °F 29.9 in SSE 3.7 mph 6 mph 66% 0 in
05:59 51.6 °F 40.8 °F 29.9 in SSO 3.6 mph 6 mph 66.5% 0 in
06:04 51.6 °F 40.6 °F 29.9 in SSO 3 mph 6.2 mph 66% 0 in
06:09 52 °F 40.8 °F 29.9 in SO 2.9 mph 6 mph 65.5% 0 in
06:14 52.2 °F 40.6 °F 29.9 in Oeste 3 mph 5 mph 65% 0 in
06:19 52.3 °F 40.8 °F 29.9 in Oeste 3.1 mph 5 mph 65% 0 in
06:24 52.2 °F 40.6 °F 29.9 in Oeste 2.1 mph 3 mph 65.1% 0 in
06:29 51.8 °F 40.8 °F 29.9 in Oeste 1.8 mph 2.4 mph 66% 0 in
06:34 51.4 °F 40.8 °F 29.9 in Oeste 0.4 mph 2.4 mph 66.7% 0 in
06:39 51.3 °F 40.8 °F 29.9 in Calm   2.4 mph 67.3% 0 in
06:44 51.1 °F 40.8 °F 29.9 in Calm   4 mph 68% 0 in
06:49 50.5 °F 40.6 °F 29.9 in Calm   5 mph 68.6% 0 in
06:54 50.4 °F 40.6 °F 29.9 in SE 1.4 mph 4 mph 69.5% 0 in
06:59 50 °F 40.8 °F 29.9 in SE 1.8 mph 4.6 mph 70.4% 0 in
07:04 49.8 °F 40.8 °F 29.9 in SSE 2.3 mph 5 mph 71% 0 in
07:09 49.8 °F 40.8 °F 29.9 in Sur 2.4 mph 5 mph 71.1% 0 in
07:14 49.8 °F 41.2 °F 29.9 in Sur 2.4 mph 4.6 mph 72% 0 in
07:19 49.8 °F 41.2 °F 29.9 in Sur 2.4 mph 5 mph 71.9% 0 in
07:24 50.2 °F 41 °F 29.9 in SSO 3 mph 5.9 mph 71% 0 in
07:29 50.4 °F 41.4 °F 29.9 in SSO 3.1 mph 6.4 mph 71% 0 in
07:34 50.5 °F 41.2 °F 29.9 in SSE 3.8 mph 7 mph 70% 0 in
07:39 50.5 °F 41.2 °F 29.9 in SSE 4 mph 6.2 mph 70% 0 in
07:44 50.5 °F 41.2 °F 29.9 in SSE 4.2 mph 6 mph 70% 0 in
07:49 50.5 °F 41 °F 29.9 in Sur 4.3 mph 5 mph 70% 0 in
07:54 50.5 °F 41.2 °F 29.9 in SSE 3.4 mph 5 mph 70% 0 in
07:59 50.5 °F 41.2 °F 29.9 in SSO 3.1 mph 5 mph 70% 0 in
08:04 50.7 °F 41 °F 29.9 in SSO 2 mph 4.3 mph 69.4% 0 in
08:09 51.1 °F 41.2 °F 29.9 in SO 1.8 mph 5 mph 68.9% 0 in
08:14 51.3 °F 41.2 °F 29.9 in SO 2.3 mph 5 mph 68% 0 in
08:19 51.6 °F 41.2 °F 29.9 in Sur 2.4 mph 5.9 mph 67.6% 0 in
08:24 52 °F 41.5 °F 29.9 in SSE 2.8 mph 6 mph 67.6% 0 in
08:29 52.2 °F 41.5 °F 29.9 in SSE 2.9 mph 5.8 mph 67% 0 in
08:34 52.2 °F 41.5 °F 29.9 in SSE 3 mph 6 mph 67.3% 0 in
08:39 51.8 °F 41.5 °F 29.9 in SSE 3.1 mph 6 mph 68.1% 0 in
08:44 51.8 °F 41.7 °F 29.9 in SSE 3.8 mph 6 mph 68.4% 0 in
08:49 52.2 °F 41.9 °F 29.9 in Sur 4 mph 5 mph 68% 0 in
08:54 52.5 °F 41.9 °F 29.9 in SSE 3.1 mph 5 mph 67.3% 0 in
08:59 53.1 °F 42.1 °F 29.9 in SE 2.9 mph 5.8 mph 66.3% 0 in
09:04 53.4 °F 42.3 °F 29.9 in SSE 3 mph 6 mph 65.7% 0 in
09:09 54 °F 41.9 °F 29.9 in Sur 3.1 mph 5 mph 63.8% 0 in
09:14 54 °F 41.7 °F 29.9 in SO 2.5 mph 5 mph 63% 0 in
09:19 54.3 °F 41.5 °F 29.9 in OSO 2.4 mph 4.3 mph 61.9% 0 in
09:24 54.9 °F 41.4 °F 29.9 in ONO 1.9 mph 5.2 mph 60.4% 0 in
09:29 55 °F 41.4 °F 29.9 in ONO 1.8 mph 5.8 mph 60% 0 in
09:34 55.2 °F 41.5 °F 29.9 in ONO 2.9 mph 6 mph 60% 0 in
09:39 55.4 °F 41.5 °F 29.9 in OSO 3.1 mph 4.7 mph 59.3% 0 in
09:44 55.8 °F 41.4 °F 29.9 in SO 2.5 mph 5.2 mph 58.4% 0 in
09:49 56.3 °F 41.7 °F 29.9 in Sur 2.4 mph 6.9 mph 57.9% 0 in
09:54 57 °F 41.9 °F 29.9 in SSO 3.4 mph 7 mph 57.2% 0 in
09:59 57.4 °F 41.7 °F 29.9 in SSO 3.6 mph 7 mph 56.2% 0 in
10:04 57.6 °F 41.7 °F 29.9 in OSO 3.9 mph 6.9 mph 55.2% 0 in
10:09 57.7 °F 41.4 °F 29.9 in OSO 4 mph 7 mph 54.4% 0 in
10:14 57.9 °F 41.4 °F 29.9 in Oeste 3.7 mph 7 mph 54% 0 in
10:19 58.3 °F 41.7 °F 29.9 in Oeste 3.6 mph 6 mph 54% 0 in
10:24 58.6 °F 41.5 °F 29.9 in OSO 2.6 mph 5.8 mph 53.1% 0 in
10:29 58.8 °F 41.7 °F 29.9 in Oeste 2.4 mph 6 mph 53% 0 in
10:34 59 °F 41.7 °F 29.9 in Oeste 2.4 mph 5.2 mph 52.6% 0 in
10:39 59.4 °F 41.5 °F 29.9 in Sur 2.4 mph 5.2 mph 51.4% 0 in
10:44 60.1 °F 41.9 °F 29.9 in SE 2.8 mph 5 mph 51% 0 in
10:49 60.8 °F 41.9 °F 29.9 in ENE 2.9 mph 5 mph 49.7% 0 in
10:54 61.3 °F 41.9 °F 29.9 in NO 2.2 mph 4 mph 48.9% 0 in
10:59 62.1 °F 42.3 °F 29.8 in SSO 2 mph 4 mph 48.2% 0 in
11:04 62.4 °F 41.9 °F 29.8 in ONO 1.9 mph 4 mph 47.1% 0 in
11:09 63 °F 42.3 °F 29.8 in SSE 1.8 mph 4.6 mph 46.9% 0 in
11:14 63.5 °F 42.1 °F 29.8 in North 1.5 mph 5 mph 45.6% 0 in
11:19 63.7 °F 42.3 °F 29.8 in OSO 1.4 mph 5 mph 45.7% 0 in
11:24 63.7 °F 42.4 °F 29.8 in SO 2.2 mph 5.2 mph 45.8% 0 in
11:29 63.9 °F 42.4 °F 29.8 in NO 2.4 mph 5 mph 45.5% 0 in
11:34 64 °F 42.8 °F 29.8 in ONO 1.9 mph 5 mph 45.8% 0 in
11:39 64.8 °F 43 °F 29.8 in Sur 1.8 mph 5.9 mph 45.1% 0 in
11:44 65.1 °F 43 °F 29.8 in SSE 2.7 mph 6 mph 44.4% 0 in
11:49 65.7 °F 43.3 °F 29.8 in SSO 2.9 mph 5.2 mph 44.4% 0 in
11:54 66 °F 43.5 °F 29.8 in SSE 2.5 mph 6.9 mph 44% 0 in
11:59 66.4 °F 43.7 °F 29.8 in SO 2.4 mph 7 mph 44% 0 in
12:04 66.6 °F 43.9 °F 29.8 in NNE 2.8 mph 5.8 mph 44% 0 in
12:09 66.6 °F 44.2 °F 29.8 in OSO 2.9 mph 8.1 mph 44.4% 0 in
12:14 66.4 °F 44.4 °F 29.8 in SO 3.8 mph 8 mph 45% 0 in
12:19 66.4 °F 44.4 °F 29.8 in OSO 4 mph 6.2 mph 45% 0 in
12:24 66.6 °F 44.8 °F 29.8 in Oeste 3.7 mph 6 mph 45.5% 0 in
12:29 66.7 °F 45.3 °F 29.8 in Sur 3.6 mph 6.9 mph 45.9% 0 in
12:34 66.9 °F 45.1 °F 29.8 in SSO 3.9 mph 7.4 mph 45.4% 0 in
12:39 67.1 °F 45.7 °F 29.8 in OSO 4 mph 7.4 mph 46% 0 in
12:44 67.1 °F 45.5 °F 29.8 in OSO 4.2 mph 7.6 mph 46% 0 in
12:49 67.1 °F 45.7 °F 29.8 in OSO 4.3 mph 8.1 mph 46% 0 in
12:54 67.5 °F 45.9 °F 29.8 in OSO 4 mph 9.2 mph 46% 0 in
12:59 67.5 °F 46 °F 29.8 in OSO 4 mph 9.2 mph 46.1% 0 in
13:04 67.5 °F 46 °F 29.8 in OSO 5.2 mph 9 mph 46.2% 0 in
13:09 67.6 °F 46.4 °F 29.8 in SO 5.4 mph 8.1 mph 46.4% 0 in
13:14 68 °F 46.6 °F 29.8 in SO 4.3 mph 9.7 mph 46.2% 0 in
13:19 68.4 °F 46.8 °F 29.8 in OSO 4 mph 10 mph 46% 0 in
13:24 68.5 °F 46.9 °F 29.8 in OSO 5 mph 9 mph 45.9% 0 in
13:29 69.1 °F 46.8 °F 29.8 in OSO 5.2 mph 9.2 mph 45% 0 in
13:34 69.3 °F 46.9 °F 29.8 in OSO 4.2 mph 9.2 mph 45% 0 in
13:39 69.1 °F 46.8 °F 29.8 in OSO 4 mph 9.2 mph 45% 0 in
13:44 69.3 °F 46.9 °F 29.8 in SO 5.2 mph 9 mph 45% 0 in
13:49 69.4 °F 47.3 °F 29.8 in SO 5.4 mph 7 mph 45.1% 0 in
13:54 69.6 °F 47.3 °F 29.8 in Oeste 3.9 mph 7 mph 44.9% 0 in
13:59 70 °F 47.3 °F 29.8 in SO 3.6 mph 6 mph 44.4% 0 in
14:04 70 °F 47.7 °F 29.8 in OSO 2.5 mph 6 mph 45% 0 in
14:09 70.2 °F 47.8 °F 29.8 in OSO 2.4 mph 6 mph 45% 0 in
14:14 70.2 °F 47.7 °F 29.8 in ONO 2.8 mph 6 mph 44.8% 0 in
14:19 70.3 °F 47.7 °F 29.8 in ONO 2.9 mph 6 mph 44.3% 0 in
14:24 70.5 °F 47.5 °F 29.8 in ONO 2.5 mph 6 mph 44% 0 in
14:29 70.5 °F 47.5 °F 29.8 in NO 2.4 mph 6 mph 44% 0 in
14:34 70.5 °F 47.7 °F 29.8 in NO 3 mph 6.2 mph 44.3% 0 in
14:39 70.3 °F 47.8 °F 29.8 in NO 3.1 mph 8.1 mph 44.6% 0 in
14:44 70.3 °F 47.3 °F 29.8 in NO 3.8 mph 10.4 mph 43.9% 0 in
14:49 70 °F 46.9 °F 29.8 in NO 4 mph 10 mph 43.7% 0 in
14:54 69.6 °F 46.9 °F 29.8 in ONO 6 mph 10.4 mph 44.4% 0 in
14:59 69.4 °F 47.7 °F 29.8 in Oeste 6.4 mph 10.7 mph 46% 0 in
15:04 68.7 °F 49.5 °F 29.8 in ONO 6.8 mph 13.8 mph 50.3% 0 in
15:09 67.8 °F 51.1 °F 29.8 in ONO 6.9 mph 14 mph 54.9% 0 in
15:14 67.3 °F 51.1 °F 29.8 in Oeste 5.1 mph 6 mph 56.1% 0 in
15:19 66.9 °F 51.3 °F 29.8 in SO 4.7 mph 6 mph 57.3% 0 in
15:24 66.7 °F 51.4 °F 29.8 in SO 3.4 mph 5.2 mph 57.7% 0 in
15:29 66.9 °F 51.4 °F 29.8 in SSO 3.1 mph 5.9 mph 57.8% 0 in
15:34 67.1 °F 51.3 °F 29.8 in SSE 3.1 mph 6.9 mph 56.8% 0 in
15:39 67.3 °F 51.6 °F 29.8 in Sur 3.1 mph 9.2 mph 57.1% 0 in
15:44 67.3 °F 51.6 °F 29.8 in Sur 4.3 mph 9 mph 57.3% 0 in
15:49 67.3 °F 51.4 °F 29.8 in SSE 4.7 mph 8.7 mph 56.8% 0 in
15:54 67.3 °F 51.1 °F 29.8 in SSE 5.1 mph 9.2 mph 56.2% 0 in
15:59 67.3 °F 51.6 °F 29.8 in Sur 5.2 mph 9 mph 57.1% 0 in
16:04 67.6 °F 51.6 °F 29.8 in SSE 5.2 mph 9.7 mph 56.5% 0 in
16:09 67.6 °F 52.5 °F 29.8 in SE 5.2 mph 10.4 mph 58.4% 0 in
16:14 67.6 °F 52.9 °F 29.7 in SSE 5.3 mph 10 mph 59.2% 0 in
16:19 67.6 °F 52.9 °F 29.7 in NNE 5.4 mph 7 mph 58.9% 0 in
16:24 68.2 °F 52 °F 29.8 in Sur 2.7 mph 5 mph 56.5% 0 in
16:29 68.2 °F 52 °F 29.8 in SSE 2 mph 5.9 mph 56.2% 0 in
16:34 67.8 °F 52.2 °F 29.8 in SSE 2.3 mph 6.9 mph 57% 0 in
16:39 67.6 °F 52 °F 29.8 in SSE 2.4 mph 8.5 mph 57.1% 0 in
16:44 67.6 °F 52.2 °F 29.7 in SSE 4.7 mph 9 mph 57.6% 0 in
16:49 67.8 °F 52.2 °F 29.7 in SSE 5.2 mph 6 mph 57.3% 0 in
16:54 68 °F 52.2 °F 29.7 in SE 3.4 mph 7.6 mph 56.9% 0 in
16:59 68 °F 51.8 °F 29.7 in Sur 2.9 mph 8.1 mph 56% 0 in
17:04 67.8 °F 51.4 °F 29.7 in Sur 3.8 mph 8 mph 56% 0 in
17:09 67.8 °F 51.4 °F 29.7 in Sur 4 mph 7 mph 55.7% 0 in
17:14 67.8 °F 51.6 °F 29.7 in Sur 4.6 mph 7.4 mph 56.3% 0 in
17:19 67.8 °F 52 °F 29.7 in Sur 4.7 mph 8.1 mph 57% 0 in
17:24 67.8 °F 52 °F 29.8 in Sur 5.1 mph 8 mph 57.2% 0 in
17:29 67.6 °F 52 °F 29.8 in Sur 5.2 mph 7.4 mph 57% 0 in
17:34 67.8 °F 52 °F 29.8 in SSO 4.5 mph 7 mph 57% 0 in
17:39 67.8 °F 52 °F 29.8 in OSO 4.3 mph 7 mph 57% 0 in
17:44 67.8 °F 52.2 °F 29.8 in Oeste 3.2 mph 5 mph 57.4% 0 in
17:49 67.8 °F 52 °F 29.8 in SO 2.9 mph 4 mph 57.1% 0 in
17:54 67.6 °F 52 °F 29.8 in Sur 2 mph 5.9 mph 57% 0 in
17:59 67.5 °F 51.6 °F 29.7 in Sur 1.8 mph 6.9 mph 57% 0 in
18:04 67.1 °F 51.8 °F 29.7 in Sur 3.7 mph 7 mph 58% 0 in
18:09 66.7 °F 51.8 °F 29.8 in Sur 4 mph 7.4 mph 58.5% 0 in
18:14 66.6 °F 51.8 °F 29.8 in Sur 4.2 mph 7 mph 59.2% 0 in
18:19 66.4 °F 52 °F 29.8 in SSE 4.3 mph 6 mph 60% 0 in
18:24 66.2 °F 52 °F 29.8 in Sur 3.4 mph 5 mph 60.3% 0 in
18:29 66 °F 52.2 °F 29.8 in Sur 3.1 mph 4.6 mph 61% 0 in
18:34 66 °F 52.2 °F 29.8 in OSO 2.2 mph 5 mph 61% 0 in
18:39 65.8 °F 52 °F 29.8 in OSO 2 mph 3 mph 61% 0 in
18:44 65.7 °F 51.8 °F 29.8 in OSO 1.5 mph 2 mph 61.1% 0 in
18:49 65.5 °F 52 °F 29.8 in OSO 1.4 mph   62% 0 in
18:54 65.1 °F 52.2 °F 29.8 in OSO 0.2 mph   62.9% 0 in
18:59 64.9 °F 52 °F 29.8 in Calm   2.4 mph 63% 0 in
19:04 64.8 °F 52.3 °F 29.8 in Calm   4 mph 63.9% 0 in
19:09 64.6 °F 52.2 °F 29.8 in Calm   5 mph 64% 0 in
19:14 64.6 °F 52.2 °F 29.8 in SE 1.9 mph 7.4 mph 64% 0 in
19:19 64.4 °F 51.6 °F 29.8 in SSE 2.4 mph 8.1 mph 63.3% 0 in
19:24 64.4 °F 51.1 °F 29.8 in SSE 3.9 mph 9.7 mph 62.1% 0 in
19:29 64.2 °F 50.7 °F 29.8 in SSE 4.3 mph 10.7 mph 61.5% 0 in
19:34 64.2 °F 48.4 °F 29.8 in SSO 6 mph 16.1 mph 56.3% 0 in
19:39 64.9 °F 46.8 °F 29.8 in SSO 6.4 mph 16 mph 51.8% 0 in
19:44 65.3 °F 46.9 °F 29.8 in SO 6.3 mph 10 mph 51.5% 0 in
19:49 65.1 °F 46.6 °F 29.8 in SSO 6.2 mph 9.7 mph 51.1% 0 in
19:54 65.1 °F 46.8 °F 29.8 in SO 5 mph 11.8 mph 51.6% 0 in
19:59 64.9 °F 46.8 °F 29.8 in Oeste 4.7 mph 12 mph 52% 0 in
20:04 64.6 °F 46.6 °F 29.8 in ESE 3.2 mph 5.2 mph 51.9% 0 in
20:09 64.2 °F 46 °F 29.8 in SO 2.9 mph 5 mph 51.7% 0 in
20:14 64 °F 45.1 °F 29.8 in SO 2.9 mph 6.2 mph 50.5% 0 in
20:19 63.9 °F 45 °F 29.8 in SO 2.9 mph 6 mph 50% 0 in
20:24 63.7 °F 44.6 °F 29.8 in SO 3.5 mph 8.5 mph 49.7% 0 in
20:29 63.7 °F 43.9 °F 29.8 in OSO 3.6 mph 11.5 mph 48.5% 0 in
20:34 63.7 °F 43.5 °F 29.8 in OSO 5.5 mph 12 mph 48% 0 in
20:39 63.5 °F 43.3 °F 29.8 in OSO 5.9 mph 10 mph 48% 0 in
20:44 63.5 °F 43 °F 29.8 in Oeste 5.3 mph 10.7 mph 47.4% 0 in
20:49 63.3 °F 42.8 °F 29.8 in OSO 5.2 mph 11 mph 47.2% 0 in
20:54 63.1 °F 42.6 °F 29.8 in SO 5.2 mph 11.5 mph 47.1% 0 in
20:59 63 °F 41.9 °F 29.8 in Oeste 5.2 mph 12 mph 46.2% 0 in
21:04 63 °F 42.3 °F 29.8 in OSO 4.2 mph 7.4 mph 47% 0 in
21:09 62.6 °F 42.1 °F 29.8 in SO 4 mph 9.2 mph 47% 0 in
21:14 62.4 °F 42.3 °F 29.8 in OSO 4.6 mph 10.4 mph 47.7% 0 in
21:19 62.2 °F 41.2 °F 29.8 in Oeste 4.7 mph 13.7 mph 46.2% 0 in
21:24 62.4 °F 40.3 °F 29.8 in Oeste 5.9 mph 14 mph 44.3% 0 in
21:29 62.4 °F 39.2 °F 29.8 in Oeste 6.2 mph 14 mph 42.3% 0 in
21:34 62.8 °F 39.2 °F 29.8 in Oeste 6 mph 10.4 mph 41.7% 0 in
21:39 62.8 °F 38.7 °F 29.8 in Oeste 5.9 mph 7.4 mph 41% 0 in
21:44 62.6 °F 38.7 °F 29.8 in SO 4.3 mph 7.4 mph 41% 0 in
21:49 62.6 °F 38.7 °F 29.8 in SO 4 mph 5.2 mph 41% 0 in
21:54 62.6 °F 38.7 °F 29.8 in SE 3.3 mph 8.1 mph 41% 0 in
21:59 62.4 °F 38.3 °F 29.8 in SO 3.1 mph 8 mph 40.9% 0 in
22:04 62.4 °F 37.6 °F 29.8 in Oeste 3.5 mph 17.3 mph 39.6% 0 in
22:09 62.8 °F 37.4 °F 29.8 in Oeste 3.6 mph 17.3 mph 39% 0 in
22:14 63 °F 37 °F 29.8 in Oeste 7.7 mph 22.3 mph 38.2% 0 in
22:19 63.3 °F 36.7 °F 29.8 in Oeste 8.7 mph 23 mph 37.1% 0.01 in
22:24 63.1 °F 37 °F 29.8 in Oeste 11.7 mph 24.2 mph 37.8% 0.01 in
22:29 63 °F 37 °F 29.8 in Oeste 12.5 mph 24 mph 38% 0.01 in
22:34 62.8 °F 36.7 °F 29.8 in Oeste 11.6 mph 17 mph 38% 0.01 in
22:39 62.4 °F 37 °F 29.8 in Oeste 11.4 mph 16.1 mph 38.7% 0.01 in
22:44 62.2 °F 37 °F 29.8 in Oeste 9.1 mph 16 mph 39% 0.01 in
22:49 61.9 °F 37.2 °F 29.8 in Oeste 8.5 mph 12 mph 39.9% 0.01 in
22:54 61.5 °F 37 °F 29.8 in Oeste 6.6 mph 12 mph 40% 0.01 in
22:59 61.3 °F 36.9 °F 29.8 in Oeste 6.2 mph 9.2 mph 40% 0.01 in
23:04 61.2 °F 36.9 °F 29.8 in ONO 5.3 mph 9 mph 40.4% 0.01 in
23:09 61 °F 37 °F 29.8 in ONO 5.2 mph 9 mph 41% 0.01 in
23:14 60.6 °F 37.2 °F 29.8 in ONO 3.9 mph 7 mph 41.7% 0.01 in
23:19 60.3 °F 37.4 °F 29.8 in NO 3.6 mph 5.4 mph 42.5% 0 in
23:24 59.7 °F 37.4 °F 29.8 in NO 2.6 mph 6.4 mph 43.3% 0 in
23:29 59.4 °F 37.4 °F 29.8 in ONO 2.4 mph 7 mph 44% 0 in
23:34 59.2 °F 37.2 °F 29.8 in Oeste 3.9 mph 6.9 mph 44.2% 0 in
23:39 58.8 °F 37.6 °F 29.8 in OSO 4.3 mph 8.1 mph 45% 0 in
23:44 58.8 °F 37 °F 29.8 in OSO 4 mph 8.1 mph 44% 0 in
23:49 59 °F 37.2 °F 29.8 in SO 4 mph 9.7 mph 44% 0 in
23:54 59.2 °F 37.4 °F 29.8 in OSO 5 mph 10.4 mph 44% 0 in
23:59 59.4 °F 37 °F 29.8 in OSO 5.2 mph 10.7 mph 43.3% 0 in
Murcia-Puente Tocinos, España
Compliments of Weather Underground - 3 mb

La estación de MeteoMurcia.com, publica sus datos en los siguientes proyectos:

Weather Underground PWS IMURCIAP2 Meteoclimatic www.awekas.at

W3Counter
Web Analytics